American Star — WDD7311 — position and weather

sailwx.info

Track history (hours):
 
Tides and Currents Weather Stations Pressure Air Temp Water Temp Dewpoint Dewpoint Depression Visibility Wind Speed Wind Dir Waves Ship Positions

American Star

Owner: American Cruise Lines, Inc, Delmar, DE. More information available from US FCC via Universal Licensing System and Coast Guard Vessel Documentation Center.

Last reported at 2015-Jul-04 18:32 UTC. Time now 2015-Jul-05 15:05 UTC.
Position N 41°36' W 071°13'.

Length 60 m; draft 2.1 m.

Type: Ship (hazmat cat C). MMSI: 367184740.

Date/timePositionNaut miles runAvg speedWind from/ knotsBaromVisibWave heightAir tempDewpointWater temp
2015-Jul-04 18:32N 41°36' W 071°13'7 6.5
2015-Jul-04 17:30N 41°42' W 071°10'0 0.0
2015-Jul-04 16:30N 41°42' W 071°10'0 0.0
2015-Jul-04 15:24N 41°42' W 071°10'0 0.0
2015-Jul-04 14:30N 41°42' W 071°10'0 0.0
2015-Jul-04 13:24N 41°42' W 071°10'0 0.0
2015-Jul-04 12:30N 41°42' W 071°10'0 0.0
2015-Jul-04 11:30N 41°42' W 071°10'0 0.0
2015-Jul-04 10:30N 41°42' W 071°10'0 0.0
2015-Jul-04 09:24N 41°42' W 071°10'0 0.0
2015-Jul-04 08:30N 41°42' W 071°10'0 0.0
2015-Jul-04 07:30N 41°42' W 071°10'0 0.0
2015-Jul-04 06:33N 41°42' W 071°10'0 0.0
2015-Jul-04 05:33N 41°42' W 071°10'0 0.0
2015-Jul-04 04:33N 41°42' W 071°10'0 0.0
2015-Jul-04 03:33N 41°42' W 071°10'0 0.0
2015-Jul-04 02:33N 41°42' W 071°10'0 0.0
2015-Jul-04 01:33N 41°42' W 071°10'0 0.0
2015-Jul-04 00:33N 41°42' W 071°10'0 0.0
2015-Jul-03 23:30N 41°42' W 071°10'0 0.2
2015-Jul-03 22:33N 41°42' W 071°10'7 6.6
2015-Jul-03 21:33N 41°39' W 071°18'1 1.4
2015-Jul-03 20:33N 41°40' W 071°16'0 0.0
2015-Jul-03 19:33N 41°40' W 071°16'0 0.0
2015-Jul-03 18:33N 41°40' W 071°16'0 0.0
2015-Jul-03 17:33N 41°40' W 071°16'0 0.0
2015-Jul-03 16:33N 41°40' W 071°16'0 0.0
2015-Jul-03 15:33N 41°40' W 071°16'1 1.3
2015-Jul-03 14:33N 41°38' W 071°16'9 9.5
2015-Jul-03 13:33N 41°30' W 071°21'1 1.2
2015-Jul-03 12:34N 41°29' W 071°20'0 0.0
2015-Jul-03 11:34N 41°29' W 071°20'0 0.0
2015-Jul-03 10:34N 41°29' W 071°20'0 0.0
2015-Jul-03 09:33N 41°29' W 071°20'0 0.0
2015-Jul-03 08:34N 41°29' W 071°20'0 0.0
2015-Jul-03 07:33N 41°29' W 071°20'0 0.0
2015-Jul-03 06:33N 41°29' W 071°20'0 0.0
2015-Jul-03 05:33N 41°29' W 071°20'0 0.0
2015-Jul-03 04:33N 41°29' W 071°20'0 0.0
2015-Jul-03 03:33N 41°29' W 071°20'0 0.0
2015-Jul-03 02:18N 41°29' W 071°20'0 0.0
2015-Jul-03 01:33N 41°29' W 071°20'0 0.0
2015-Jul-03 00:33N 41°29' W 071°20'0 0.0
2015-Jul-02 23:33N 41°29' W 071°20'0 0.0
2015-Jul-02 22:33N 41°29' W 071°20'0 0.0
2015-Jul-02 21:27N 41°29' W 071°20'0 0.0
2015-Jul-02 19:27N 41°29' W 071°20'0 0.0
2015-Jul-02 18:33N 41°29' W 071°20'0 0.0
2015-Jul-02 17:33N 41°29' W 071°20'0 0.0
2015-Jul-02 16:33N 41°29' W 071°20'0 0.0
2015-Jul-02 15:12N 41°29' W 071°20'0 0.0
2015-Jul-02 14:12N 41°29' W 071°20'0 0.0
2015-Jul-02 13:30N 41°29' W 071°20'0 0.0
2015-Jul-02 12:30N 41°29' W 071°20'4 3.8
2015-Jul-02 11:33N 41°26' W 071°24'1110.7
2015-Jul-02 10:34N 41°18' W 071°32'7 6.9
2015-Jul-02 09:34N 41°11' W 071°35'0 0.0
2015-Jul-02 08:33N 41°11' W 071°35'0 0.0
2015-Jul-02 07:33N 41°11' W 071°35'0 0.0
2015-Jul-02 06:33N 41°11' W 071°35'0 0.0
2015-Jul-02 05:33N 41°11' W 071°35'0 0.0
2015-Jul-02 04:34N 41°11' W 071°35'0 0.0
2015-Jul-02 03:33N 41°11' W 071°35'0 0.0
2015-Jul-02 02:33N 41°11' W 071°35'0 0.0
2015-Jul-02 01:33N 41°11' W 071°35'0 0.0
2015-Jul-02 00:33N 41°11' W 071°35'0 0.0
2015-Jul-01 23:34N 41°11' W 071°35'0 0.0
2015-Jul-01 22:33N 41°11' W 071°35'0 0.0
2015-Jul-01 21:34N 41°11' W 071°35'0 0.0
2015-Jul-01 20:33N 41°11' W 071°35'0 0.0
2015-Jul-01 19:33N 41°11' W 071°35'0 0.0
2015-Jul-01 18:33N 41°11' W 071°35'0 0.0
2015-Jul-01 17:33N 41°11' W 071°35'0 0.0
2015-Jul-01 16:33N 41°11' W 071°35'0 0.0
2015-Jul-01 15:33N 41°11' W 071°35'5 4.7
2015-Jul-01 14:33N 41°16' W 071°35'8 7.6
2015-Jul-01 13:34N 41°17' W 071°25'8 7.6
2015-Jul-01 12:33N 41°20' W 071°15'7 7.2
2015-Jul-01 11:33N 41°21' W 071°06'1111.0
2015-Jul-01 10:32N 41°24' W 070°52'1110.7
2015-Jul-01 09:33N 41°29' W 070°39'3 3.2
2015-Jul-01 08:33N 41°27' W 070°36'0 0.0
2015-Jul-01 07:34N 41°27' W 070°36'0 0.0
2015-Jul-01 06:30N 41°27' W 070°36'0 0.0
2015-Jul-01 05:15N 41°27' W 070°36'0 0.0
2015-Jul-01 04:33N 41°27' W 070°36'0 0.0
2015-Jul-01 03:33N 41°27' W 070°36'0 0.0
2015-Jul-01 02:33N 41°27' W 070°36'0 0.0
2015-Jul-01 01:32N 41°27' W 070°36'0 0.0
2015-Jul-01 00:24N 41°27' W 070°36'0 0.0
2015-Jun-30 23:29N 41°27' W 070°36'0 0.0
2015-Jun-30 22:34N 41°27' W 070°36'0 0.0
2015-Jun-30 21:34N 41°27' W 070°36'0 0.0
2015-Jun-30 20:27N 41°27' W 070°36'0 0.0
2015-Jun-30 19:34N 41°27' W 070°36'0 0.0
2015-Jun-30 18:34N 41°27' W 070°36'0 0.0
2015-Jun-30 17:33N 41°27' W 070°36'0 0.0
2015-Jun-30 16:33N 41°27' W 070°36'0 0.0
2015-Jun-30 15:21N 41°27' W 070°36'0 0.0
2015-Jun-30 13:33N 41°27' W 070°36'0 0.0
2015-Jun-30 12:34N 41°27' W 070°36'0 0.0
2015-Jun-30 11:34N 41°27' W 070°36'0 0.0
2015-Jun-30 10:33N 41°27' W 070°36'0 0.0
2015-Jun-30 09:34N 41°27' W 070°36'0 0.0
2015-Jun-30 08:33N 41°27' W 070°36'0 0.0
2015-Jun-30 07:34N 41°27' W 070°36'0 0.0
2015-Jun-30 06:34N 41°27' W 070°36'0 0.0
2015-Jun-30 05:33N 41°27' W 070°36'0 0.0
2015-Jun-30 04:34N 41°27' W 070°36'0 0.0
2015-Jun-30 03:34N 41°27' W 070°36'0 0.0
2015-Jun-30 02:33N 41°27' W 070°36'0 0.0
2015-Jun-30 01:34N 41°27' W 070°36'0 0.0
2015-Jun-30 00:33N 41°27' W 070°36'20 6.7
2015-Jun-29 21:32N 41°23' W 070°09'7 0.8
2015-Jun-29 13:28N 41°17' W 070°05'0 0.0
2015-Jun-29 12:29N 41°17' W 070°05'5 5.6
2015-Jun-29 11:32N 41°22' W 070°09'9 9.1
2015-Jun-29 10:33N 41°27' W 070°18'1110.6
2015-Jun-29 09:28N 41°29' W 070°33'1311.3
2015-Jun-29 08:18N 41°26' W 070°50'11 0.3
2015-Jun-27 23:21N 41°37' W 070°54'5 6.8
2015-Jun-27 22:34N 41°32' W 070°52'9 8.4
2015-Jun-27 21:32N 41°27' W 071°02'9 9.1
2015-Jun-27 20:33N 41°28' W 071°13'1110.5
2015-Jun-27 19:33N 41°39' W 071°13'7 6.9
2015-Jun-27 18:33N 41°43' W 071°20'7 6.8
2015-Jun-27 17:33N 41°49' W 071°24'0 0.0
2015-Jun-27 16:32N 41°49' W 071°24'0 0.0
2015-Jun-27 15:24N 41°49' W 071°24'0 0.0
2015-Jun-27 14:33N 41°49' W 071°24'0 0.0
2015-Jun-27 13:29N 41°49' W 071°24'0 0.0
2015-Jun-27 12:34N 41°49' W 071°24'0 0.0
2015-Jun-27 11:34N 41°49' W 071°24'0 0.0
2015-Jun-27 10:33N 41°49' W 071°24'0 0.0
2015-Jun-27 09:33N 41°49' W 071°24'0 0.0
2015-Jun-27 08:33N 41°49' W 071°24'0 0.0
2015-Jun-27 07:33N 41°49' W 071°24'0 0.0
2015-Jun-27 06:34N 41°49' W 071°24'0 0.0
2015-Jun-27 05:33N 41°49' W 071°24'0 0.0
2015-Jun-27 04:33N 41°49' W 071°24'0 0.0
2015-Jun-27 03:34N 41°49' W 071°24'0 0.0
2015-Jun-27 02:28N 41°49' W 071°24'0 0.0
2015-Jun-27 01:19N 41°49' W 071°24'0 0.0
2015-Jun-27 00:16N 41°49' W 071°24'0 0.0
2015-Jun-26 23:04N 41°49' W 071°24'0 0.4
2015-Jun-26 22:31N 41°49' W 071°24'9 9.2
2015-Jun-26 21:33N 41°41' W 071°19'2 2.1
2015-Jun-26 20:33N 41°40' W 071°16'0 0.0
2015-Jun-26 19:33N 41°40' W 071°16'0 0.0
2015-Jun-26 18:33N 41°40' W 071°16'0 0.0
2015-Jun-26 17:33N 41°40' W 071°16'0 0.0
2015-Jun-26 16:33N 41°40' W 071°16'0 0.0
2015-Jun-26 15:24N 41°40' W 071°16'2 2.3
2015-Jun-26 14:33N 41°38' W 071°16'10 9.3
2015-Jun-26 13:31N 41°29' W 071°20'0 0.1
2015-Jun-26 12:33N 41°29' W 071°20'0 0.0
2015-Jun-26 11:33N 41°29' W 071°20'0 0.0
2015-Jun-26 10:33N 41°29' W 071°20'0 0.0
2015-Jun-26 09:33N 41°29' W 071°20'0 0.0
2015-Jun-26 08:34N 41°29' W 071°20'0 0.0
2015-Jun-26 07:33N 41°29' W 071°20'0 0.0
2015-Jun-26 06:33N 41°29' W 071°20'0 0.0
2015-Jun-26 05:33N 41°29' W 071°20'0 0.0
2015-Jun-26 04:34N 41°29' W 071°20'0 0.0
2015-Jun-26 03:33N 41°29' W 071°20'0 0.0
2015-Jun-26 02:33N 41°29' W 071°20'0 0.0
2015-Jun-26 01:34N 41°29' W 071°20'0 0.0
2015-Jun-26 00:33N 41°29' W 071°20'0 0.0
2015-Jun-25 23:33N 41°29' W 071°20'0 0.0
2015-Jun-25 22:34N 41°29' W 071°20'0 0.0
2015-Jun-25 21:33N 41°29' W 071°20'0 0.0
2015-Jun-25 20:34N 41°29' W 071°20'0 0.0
2015-Jun-25 19:33N 41°29' W 071°20'0 0.0
2015-Jun-25 18:34N 41°29' W 071°20'0 0.0
2015-Jun-25 17:33N 41°29' W 071°20'0 0.0
2015-Jun-25 16:33N 41°29' W 071°20'0 0.0
2015-Jun-25 15:33N 41°29' W 071°20'0 0.0
2015-Jun-25 14:33N 41°29' W 071°20'0 0.0
2015-Jun-25 13:33N 41°29' W 071°20'0 0.0
2015-Jun-25 12:13N 41°29' W 071°20'3 5.2
2015-Jun-25 11:34N 41°27' W 071°24'1111.0
2015-Jun-25 10:33N 41°17' W 071°32'7 6.7
2015-Jun-25 09:34N 41°11' W 071°35'0 0.0
2015-Jun-25 08:33N 41°11' W 071°35'0 0.0
2015-Jun-25 07:33N 41°11' W 071°35'0 0.0
2015-Jun-25 06:34N 41°11' W 071°35'0 0.0
2015-Jun-25 05:33N 41°11' W 071°35'0 0.0
2015-Jun-25 04:34N 41°11' W 071°35'0 0.0
2015-Jun-25 03:33N 41°11' W 071°35'0 0.0
2015-Jun-25 02:33N 41°11' W 071°35'0 0.0
2015-Jun-25 01:33N 41°11' W 071°35'0 0.0
2015-Jun-25 00:34N 41°11' W 071°35'0 0.0
2015-Jun-24 23:34N 41°11' W 071°35'0 0.0
2015-Jun-24 22:33N 41°11' W 071°35'0 0.0
2015-Jun-24 21:33N 41°11' W 071°35'0 0.0
2015-Jun-24 20:33N 41°11' W 071°35'0 0.0
2015-Jun-24 19:34N 41°11' W 071°35'0 0.0
2015-Jun-24 18:33N 41°11' W 071°35'  
Track history (hours):
 
Tides and Currents Weather Stations Pressure Air Temp Water Temp Dewpoint Dewpoint Depression Visibility Wind Speed Wind Dir Waves Ship Positions

American Star

Owner: American Cruise Lines, Inc, Delmar, DE. More information available from US FCC via Universal Licensing System and Coast Guard Vessel Documentation Center.

Last reported at 2015-Jul-04 18:32 UTC. Time now 2015-Jul-05 15:05 UTC.
Position N 41°36' W 071°13'.

Length 60 m; draft 2.1 m.

Type: Ship (hazmat cat C). MMSI: 367184740.

Date/timePositionNaut miles runAvg speedWind from/ knotsBaromVisibWave heightAir tempDewpointWater temp
2015-Jul-04 18:32N 41°36' W 071°13'7 6.5
2015-Jul-04 17:30N 41°42' W 071°10'0 0.0
2015-Jul-04 16:30N 41°42' W 071°10'0 0.0
2015-Jul-04 15:24N 41°42' W 071°10'0 0.0
2015-Jul-04 14:30N 41°42' W 071°10'0 0.0
2015-Jul-04 13:24N 41°42' W 071°10'0 0.0
2015-Jul-04 12:30N 41°42' W 071°10'0 0.0
2015-Jul-04 11:30N 41°42' W 071°10'0 0.0
2015-Jul-04 10:30N 41°42' W 071°10'0 0.0
2015-Jul-04 09:24N 41°42' W 071°10'0 0.0
2015-Jul-04 08:30N 41°42' W 071°10'0 0.0
2015-Jul-04 07:30N 41°42' W 071°10'0 0.0
2015-Jul-04 06:33N 41°42' W 071°10'0 0.0
2015-Jul-04 05:33N 41°42' W 071°10'0 0.0
2015-Jul-04 04:33N 41°42' W 071°10'0 0.0
2015-Jul-04 03:33N 41°42' W 071°10'0 0.0
2015-Jul-04 02:33N 41°42' W 071°10'0 0.0
2015-Jul-04 01:33N 41°42' W 071°10'0 0.0
2015-Jul-04 00:33N 41°42' W 071°10'0 0.0
2015-Jul-03 23:30N 41°42' W 071°10'0 0.2
2015-Jul-03 22:33N 41°42' W 071°10'7 6.6
2015-Jul-03 21:33N 41°39' W 071°18'1 1.4
2015-Jul-03 20:33N 41°40' W 071°16'0 0.0
2015-Jul-03 19:33N 41°40' W 071°16'0 0.0
2015-Jul-03 18:33N 41°40' W 071°16'0 0.0
2015-Jul-03 17:33N 41°40' W 071°16'0 0.0
2015-Jul-03 16:33N 41°40' W 071°16'0 0.0
2015-Jul-03 15:33N 41°40' W 071°16'1 1.3
2015-Jul-03 14:33N 41°38' W 071°16'9 9.5
2015-Jul-03 13:33N 41°30' W 071°21'1 1.2
2015-Jul-03 12:34N 41°29' W 071°20'0 0.0
2015-Jul-03 11:34N 41°29' W 071°20'0 0.0
2015-Jul-03 10:34N 41°29' W 071°20'0 0.0
2015-Jul-03 09:33N 41°29' W 071°20'0 0.0
2015-Jul-03 08:34N 41°29' W 071°20'0 0.0
2015-Jul-03 07:33N 41°29' W 071°20'0 0.0
2015-Jul-03 06:33N 41°29' W 071°20'0 0.0
2015-Jul-03 05:33N 41°29' W 071°20'0 0.0
2015-Jul-03 04:33N 41°29' W 071°20'0 0.0
2015-Jul-03 03:33N 41°29' W 071°20'0 0.0
2015-Jul-03 02:18N 41°29' W 071°20'0 0.0
2015-Jul-03 01:33N 41°29' W 071°20'0 0.0
2015-Jul-03 00:33N 41°29' W 071°20'0 0.0
2015-Jul-02 23:33N 41°29' W 071°20'0 0.0
2015-Jul-02 22:33N 41°29' W 071°20'0 0.0
2015-Jul-02 21:27N 41°29' W 071°20'0 0.0
2015-Jul-02 19:27N 41°29' W 071°20'0 0.0
2015-Jul-02 18:33N 41°29' W 071°20'0 0.0
2015-Jul-02 17:33N 41°29' W 071°20'0 0.0
2015-Jul-02 16:33N 41°29' W 071°20'0 0.0
2015-Jul-02 15:12N 41°29' W 071°20'0 0.0
2015-Jul-02 14:12N 41°29' W 071°20'0 0.0
2015-Jul-02 13:30N 41°29' W 071°20'0 0.0
2015-Jul-02 12:30N 41°29' W 071°20'4 3.8
2015-Jul-02 11:33N 41°26' W 071°24'1110.7
2015-Jul-02 10:34N 41°18' W 071°32'7 6.9
2015-Jul-02 09:34N 41°11' W 071°35'0 0.0
2015-Jul-02 08:33N 41°11' W 071°35'0 0.0
2015-Jul-02 07:33N 41°11' W 071°35'0 0.0
2015-Jul-02 06:33N 41°11' W 071°35'0 0.0
2015-Jul-02 05:33N 41°11' W 071°35'0 0.0
2015-Jul-02 04:34N 41°11' W 071°35'0 0.0
2015-Jul-02 03:33N 41°11' W 071°35'0 0.0
2015-Jul-02 02:33N 41°11' W 071°35'0 0.0
2015-Jul-02 01:33N 41°11' W 071°35'0 0.0
2015-Jul-02 00:33N 41°11' W 071°35'0 0.0
2015-Jul-01 23:34N 41°11' W 071°35'0 0.0
2015-Jul-01 22:33N 41°11' W 071°35'0 0.0
2015-Jul-01 21:34N 41°11' W 071°35'0 0.0
2015-Jul-01 20:33N 41°11' W 071°35'0 0.0
2015-Jul-01 19:33N 41°11' W 071°35'0 0.0
2015-Jul-01 18:33N 41°11' W 071°35'0 0.0
2015-Jul-01 17:33N 41°11' W 071°35'0 0.0
2015-Jul-01 16:33N 41°11' W 071°35'0 0.0
2015-Jul-01 15:33N 41°11' W 071°35'5 4.7
2015-Jul-01 14:33N 41°16' W 071°35'8 7.6
2015-Jul-01 13:34N 41°17' W 071°25'8 7.6
2015-Jul-01 12:33N 41°20' W 071°15'7 7.2
2015-Jul-01 11:33N 41°21' W 071°06'1111.0
2015-Jul-01 10:32N 41°24' W 070°52'1110.7
2015-Jul-01 09:33N 41°29' W 070°39'3 3.2
2015-Jul-01 08:33N 41°27' W 070°36'0 0.0
2015-Jul-01 07:34N 41°27' W 070°36'0 0.0
2015-Jul-01 06:30N 41°27' W 070°36'0 0.0
2015-Jul-01 05:15N 41°27' W 070°36'0 0.0
2015-Jul-01 04:33N 41°27' W 070°36'0 0.0
2015-Jul-01 03:33N 41°27' W 070°36'0 0.0
2015-Jul-01 02:33N 41°27' W 070°36'0 0.0
2015-Jul-01 01:32N 41°27' W 070°36'0 0.0
2015-Jul-01 00:24N 41°27' W 070°36'0 0.0
2015-Jun-30 23:29N 41°27' W 070°36'0 0.0
2015-Jun-30 22:34N 41°27' W 070°36'0 0.0
2015-Jun-30 21:34N 41°27' W 070°36'0 0.0
2015-Jun-30 20:27N 41°27' W 070°36'0 0.0
2015-Jun-30 19:34N 41°27' W 070°36'0 0.0
2015-Jun-30 18:34N 41°27' W 070°36'0 0.0
2015-Jun-30 17:33N 41°27' W 070°36'0 0.0
2015-Jun-30 16:33N 41°27' W 070°36'0 0.0
2015-Jun-30 15:21N 41°27' W 070°36'0 0.0
2015-Jun-30 13:33N 41°27' W 070°36'0 0.0
2015-Jun-30 12:34N 41°27' W 070°36'0 0.0
2015-Jun-30 11:34N 41°27' W 070°36'0 0.0
2015-Jun-30 10:33N 41°27' W 070°36'0 0.0
2015-Jun-30 09:34N 41°27' W 070°36'0 0.0
2015-Jun-30 08:33N 41°27' W 070°36'0 0.0
2015-Jun-30 07:34N 41°27' W 070°36'0 0.0
2015-Jun-30 06:34N 41°27' W 070°36'0 0.0
2015-Jun-30 05:33N 41°27' W 070°36'0 0.0
2015-Jun-30 04:34N 41°27' W 070°36'0 0.0
2015-Jun-30 03:34N 41°27' W 070°36'0 0.0
2015-Jun-30 02:33N 41°27' W 070°36'0 0.0
2015-Jun-30 01:34N 41°27' W 070°36'0 0.0
2015-Jun-30 00:33N 41°27' W 070°36'20 6.7
2015-Jun-29 21:32N 41°23' W 070°09'7 0.8
2015-Jun-29 13:28N 41°17' W 070°05'0 0.0
2015-Jun-29 12:29N 41°17' W 070°05'5 5.6
2015-Jun-29 11:32N 41°22' W 070°09'9 9.1
2015-Jun-29 10:33N 41°27' W 070°18'1110.6
2015-Jun-29 09:28N 41°29' W 070°33'1311.3
2015-Jun-29 08:18N 41°26' W 070°50'11 0.3
2015-Jun-27 23:21N 41°37' W 070°54'5 6.8
2015-Jun-27 22:34N 41°32' W 070°52'9 8.4
2015-Jun-27 21:32N 41°27' W 071°02'9 9.1
2015-Jun-27 20:33N 41°28' W 071°13'1110.5
2015-Jun-27 19:33N 41°39' W 071°13'7 6.9
2015-Jun-27 18:33N 41°43' W 071°20'7 6.8
2015-Jun-27 17:33N 41°49' W 071°24'0 0.0
2015-Jun-27 16:32N 41°49' W 071°24'0 0.0
2015-Jun-27 15:24N 41°49' W 071°24'0 0.0
2015-Jun-27 14:33N 41°49' W 071°24'0 0.0
2015-Jun-27 13:29N 41°49' W 071°24'0 0.0
2015-Jun-27 12:34N 41°49' W 071°24'0 0.0
2015-Jun-27 11:34N 41°49' W 071°24'0 0.0
2015-Jun-27 10:33N 41°49' W 071°24'0 0.0
2015-Jun-27 09:33N 41°49' W 071°24'0 0.0
2015-Jun-27 08:33N 41°49' W 071°24'0 0.0
2015-Jun-27 07:33N 41°49' W 071°24'0 0.0
2015-Jun-27 06:34N 41°49' W 071°24'0 0.0
2015-Jun-27 05:33N 41°49' W 071°24'0 0.0
2015-Jun-27 04:33N 41°49' W 071°24'0 0.0
2015-Jun-27 03:34N 41°49' W 071°24'0 0.0
2015-Jun-27 02:28N 41°49' W 071°24'0 0.0
2015-Jun-27 01:19N 41°49' W 071°24'0 0.0
2015-Jun-27 00:16N 41°49' W 071°24'0 0.0
2015-Jun-26 23:04N 41°49' W 071°24'0 0.4
2015-Jun-26 22:31N 41°49' W 071°24'9 9.2
2015-Jun-26 21:33N 41°41' W 071°19'2 2.1
2015-Jun-26 20:33N 41°40' W 071°16'0 0.0
2015-Jun-26 19:33N 41°40' W 071°16'0 0.0
2015-Jun-26 18:33N 41°40' W 071°16'0 0.0
2015-Jun-26 17:33N 41°40' W 071°16'0 0.0
2015-Jun-26 16:33N 41°40' W 071°16'0 0.0
2015-Jun-26 15:24N 41°40' W 071°16'2 2.3
2015-Jun-26 14:33N 41°38' W 071°16'10 9.3
2015-Jun-26 13:31N 41°29' W 071°20'0 0.1
2015-Jun-26 12:33N 41°29' W 071°20'0 0.0
2015-Jun-26 11:33N 41°29' W 071°20'0 0.0
2015-Jun-26 10:33N 41°29' W 071°20'0 0.0
2015-Jun-26 09:33N 41°29' W 071°20'0 0.0
2015-Jun-26 08:34N 41°29' W 071°20'0 0.0
2015-Jun-26 07:33N 41°29' W 071°20'0 0.0
2015-Jun-26 06:33N 41°29' W 071°20'0 0.0
2015-Jun-26 05:33N 41°29' W 071°20'0 0.0
2015-Jun-26 04:34N 41°29' W 071°20'0 0.0
2015-Jun-26 03:33N 41°29' W 071°20'0 0.0
2015-Jun-26 02:33N 41°29' W 071°20'0 0.0
2015-Jun-26 01:34N 41°29' W 071°20'0 0.0
2015-Jun-26 00:33N 41°29' W 071°20'0 0.0
2015-Jun-25 23:33N 41°29' W 071°20'0 0.0
2015-Jun-25 22:34N 41°29' W 071°20'0 0.0
2015-Jun-25 21:33N 41°29' W 071°20'0 0.0
2015-Jun-25 20:34N 41°29' W 071°20'0 0.0
2015-Jun-25 19:33N 41°29' W 071°20'0 0.0
2015-Jun-25 18:34N 41°29' W 071°20'0 0.0
2015-Jun-25 17:33N 41°29' W 071°20'0 0.0
2015-Jun-25 16:33N 41°29' W 071°20'0 0.0
2015-Jun-25 15:33N 41°29' W 071°20'0 0.0
2015-Jun-25 14:33N 41°29' W 071°20'0 0.0
2015-Jun-25 13:33N 41°29' W 071°20'0 0.0
2015-Jun-25 12:13N 41°29' W 071°20'3 5.2
2015-Jun-25 11:34N 41°27' W 071°24'1111.0
2015-Jun-25 10:33N 41°17' W 071°32'7 6.7
2015-Jun-25 09:34N 41°11' W 071°35'0 0.0
2015-Jun-25 08:33N 41°11' W 071°35'0 0.0
2015-Jun-25 07:33N 41°11' W 071°35'0 0.0
2015-Jun-25 06:34N 41°11' W 071°35'0 0.0
2015-Jun-25 05:33N 41°11' W 071°35'0 0.0
2015-Jun-25 04:34N 41°11' W 071°35'0 0.0
2015-Jun-25 03:33N 41°11' W 071°35'0 0.0
2015-Jun-25 02:33N 41°11' W 071°35'0 0.0
2015-Jun-25 01:33N 41°11' W 071°35'0 0.0
2015-Jun-25 00:34N 41°11' W 071°35'0 0.0
2015-Jun-24 23:34N 41°11' W 071°35'0 0.0
2015-Jun-24 22:33N 41°11' W 071°35'0 0.0
2015-Jun-24 21:33N 41°11' W 071°35'0 0.0
2015-Jun-24 20:33N 41°11' W 071°35'0 0.0
2015-Jun-24 19:34N 41°11' W 071°35'0 0.0
2015-Jun-24 18:33N 41°11' W 071°35'  

Dump ship's entire track history